Minneapolis/St.Paul Radar Regional Satellite Twin Cities Traffic Info Map
Radar Satellite Traffic Traffic Cams
KLVN - Lakeville, Minnesota, USA
Distance from station: ENE 4mi, 6km
Updated: Sat, 20-Jan-2018 8:15am CST

 Wind from calm
Wind: Calm
Temperature: 25°F , -4°C
Dew Point: 25°F , -4°C
Humidity: 100%
Barometer: 29.85 inHg , 1010.8 hPa
Visibility: 10 miles , 16 km
2018/01/20 14:15 KLVN 201415Z AUTO 00000KT 10SM M04/M04 A2985 RMK AO2
KFCM - Eden Prairie, Minnesota, USA
Distance from station: NNW 17mi, 28km
Updated: Sat, 20-Jan-2018 7:53am CST
Partly Cloudy
Partly Cloudy
 Wind from calm
Wind: Calm
Temperature: 27°F , -3°C
Dew Point: 25°F , -4°C
Humidity: 93%
Barometer: 29.82 inHg , 1009.8 hPa
Clouds: Partly Cloudy
Visibility: 8 miles , 13 km
Cloud details: Partly Cloudy 12000 ft
2018/01/20 13:53 KFCM 201353Z 00000KT 8SM SCT120 M03/M04 A2982 RMK AO2 SLP107 T10331039
 
KSYN - Stanton, Minnesota, USA
Distance from station: SE 18mi, 28km
Updated: Sat, 20-Jan-2018 8:15am CST
Clear
Clear
 Wind from SSW
Wind: SSW 3 mph , 6 km/h
Temperature: 23°F , -5°C
Dew Point: 19°F , -7°C
Humidity: 86%
Barometer: 29.84 inHg , 1010.5 hPa
Clouds: Clear
Visibility: 10 miles , 16 km
2018/01/20 14:15 KSYN 201415Z AUTO 20003KT 10SM CLR M05/M07 A2984 RMK AO2 T10551066
KFBL - Faribault, Minnesota, USA
Distance from station: S 19mi, 31km
Updated: Sat, 20-Jan-2018 8:15am CST
Clear
Clear
 Wind from calm
Wind: Calm
Temperature: 19°F , -7°C
Dew Point: 18°F , -8°C
Humidity: 93%
Barometer: 29.86 inHg , 1011.2 hPa
Clouds: Clear
Visibility: 10 miles , 16 km
2018/01/20 14:15 KFBL 201415Z AUTO 00000KT 10SM CLR M07/M08 A2986 RMK AO2
 
KMSP - Minneapolis, Minnesota, USA
Distance from station: N 19mi, 31km
Updated: Sat, 20-Jan-2018 7:53am CST
Mostly Cloudy
Mostly Cloudy
 Wind from ENE
Wind: ENE 3 mph , 6 km/h
Temperature: 28°F , -2°C
Dew Point: 28°F , -2°C
Humidity: 100%
Barometer: 29.82 inHg , 1009.8 hPa
Clouds: Mostly Cloudy
Visibility: 8 miles , 13 km
Cloud details: Mostly Cloudy 12000 ft
Mostly Cloudy 18000 ft
2018/01/20 13:53 KMSP 201353Z 07003KT 8SM BKN120 BKN180 M02/M02 A2982 RMK AO2 SLP108 T10171022